Time;durP1;ratioP1;P1;durP2;ratioP2;P2;SDS_P1;SDS_P2;PMS_P1;PMS_P2;Temp;Humidity;BMP_temperature;BMP_pressure;BME280_temperature;BME280_humidity;BME280_pressure;Samples;Min_cycle;Max_cycle;Signal;HPM_P1;HPM_P2
2022/01/29 00:00:45;;;;;;;;;;;;;;;2.52;59.04;100514.00;4378504;32;34113;-88
2022/01/29 00:03:14;;;;;;;;;;;;;;;2.46;58.70;100526.59;4365366;32;34538;-89
2022/01/29 00:05:43;;;;;;;;;;;;;;;2.64;57.94;100530.59;4348972;32;34550;-88
2022/01/29 00:08:11;;;;;;;;;;;;;;;2.56;57.93;100538.00;4319567;32;33617;-87
2022/01/29 00:10:43;;;;;;;;;;;;;;;2.55;58.20;100544.81;4359154;32;33777;-92
2022/01/29 00:13:12;;;;;;;;;;;;;;;2.41;58.02;100550.31;4361346;32;34185;-88
2022/01/29 00:15:40;;;;;;;;;;;;;;;2.35;58.22;100536.50;4387531;32;34410;-88
2022/01/29 00:18:10;;;;;;;;;;;;;;;2.50;57.26;100546.38;4390729;32;33146;-87
2022/01/29 00:20:39;;;;;;;;;;;;;;;2.43;57.38;100552.09;4388165;32;34616;-88
2022/01/29 00:23:07;;;;;;;;;;;;;;;2.29;58.12;100549.06;4361643;32;34740;-86
2022/01/29 00:25:36;;;;;;;;;;;;;;;2.46;57.89;100559.00;4343206;32;33815;-88
2022/01/29 00:28:04;;;;;;;;;;;;;;;2.52;57.79;100557.53;4349157;32;34135;-87
2022/01/29 00:30:38;;;;;;;;;;;;;;;2.55;58.31;100547.38;4342617;32;34903;-89
2022/01/29 00:33:07;;;;;;;;;;;;;;;2.96;57.15;100547.84;4362127;32;35230;-87
2022/01/29 00:35:37;;;;;;;;;;;;;;;2.59;58.51;100538.13;4362625;32;34967;-87
2022/01/29 00:38:05;;;;;;;;;;;;;;;2.47;59.11;100547.97;4376466;32;34620;-90
2022/01/29 00:40:36;;;;;;;;;;;;;;;2.32;59.83;100563.66;4378039;32;35269;-89
2022/01/29 00:43:05;;;;;;;;;;;;;;;2.32;60.21;100563.66;4361517;32;35429;-88
2022/01/29 00:45:34;;;;;;;;;;;;;;;2.34;60.33;100570.59;4367920;32;34414;-90
2022/01/29 00:48:02;;;;;;;;;;;;;;;2.15;61.06;100565.69;4360283;32;33740;-87
2022/01/29 00:50:31;;;;;;;;;;;;;;;2.02;62.08;100560.94;4359080;32;35075;-89
2022/01/29 00:53:02;;;;;;;;;;;;;;;2.27;61.61;100570.31;4364668;32;35500;-89
2022/01/29 00:55:31;;;;;;;;;;;;;;;2.09;62.83;100565.44;4348991;32;33777;-88
2022/01/29 00:57:59;;;;;;;;;;;;;;;2.27;62.63;100580.56;4348527;32;34140;-90
2022/01/29 01:00:28;;;;;;;;;;;;;;;2.23;62.68;100574.47;4355929;32;34880;-88
2022/01/29 01:02:56;;;;;;;;;;;;;;;2.37;62.50;100580.09;4356807;32;34723;-88
2022/01/29 01:05:25;;;;;;;;;;;;;;;2.31;63.04;100578.16;4361459;32;34920;-88
2022/01/29 01:07:53;;;;;;;;;;;;;;;1.81;64.76;100584.94;4373103;32;33430;-89
2022/01/29 01:10:23;;;;;;;;;;;;;;;2.17;63.91;100589.59;4377252;32;32168;-88
2022/01/29 01:12:52;;;;;;;;;;;;;;;1.81;64.56;100578.94;4385083;32;34913;-89
2022/01/29 01:15:20;;;;;;;;;;;;;;;1.93;64.45;100594.72;4376488;32;34012;-87
2022/01/29 01:17:49;;;;;;;;;;;;;;;1.93;64.39;100587.03;4374627;32;33720;-89
2022/01/29 01:20:17;;;;;;;;;;;;;;;1.93;64.71;100604.97;4363352;32;34113;-87
2022/01/29 01:22:46;;;;;;;;;;;;;;;2.16;63.74;100602.38;4339266;32;34265;-88
2022/01/29 01:25:14;;;;;;;;;;;;;;;2.13;63.89;100603.13;4377173;32;34151;-87
2022/01/29 01:27:44;;;;;;;;;;;;;;;1.86;64.86;100615.78;4377879;32;34128;-88
2022/01/29 01:30:13;;;;;;;;;;;;;;;2.05;64.51;100615.63;4360335;32;34562;-89
2022/01/29 01:32:41;;;;;;;;;;;;;;;1.89;64.87;100609.13;4368573;32;33952;-88
2022/01/29 01:35:18;;;;;;;;;;;;;;;1.85;65.30;100611.50;4367269;32;34336;-88
2022/01/29 01:37:51;;;;;;;;;;;;;;;1.80;65.56;100613.87;4362564;32;33914;-88
2022/01/29 01:40:21;;;;;;;;;;;;;;;1.72;65.59;100610.19;4358585;32;34184;-89
2022/01/29 01:42:52;;;;;;;;;;;;;;;1.70;65.52;100583.66;4369525;32;33794;-89
2022/01/29 01:45:20;;;;;;;;;;;;;;;1.74;65.61;100608.56;4368856;32;33796;-88
2022/01/29 01:47:49;;;;;;;;;;;;;;;1.47;66.54;100593.03;4363646;32;33082;-88
2022/01/29 01:50:17;;;;;;;;;;;;;;;1.78;65.18;100599.28;4360377;32;34963;-89
2022/01/29 01:52:46;;;;;;;;;;;;;;;1.77;64.83;100588.19;4368932;32;35074;-89
2022/01/29 01:55:14;;;;;;;;;;;;;;;1.84;64.24;100589.31;4371023;32;32749;-90
2022/01/29 01:57:43;;;;;;;;;;;;;;;1.78;64.06;100596.75;4372004;32;33935;-88
2022/01/29 02:00:13;;;;;;;;;;;;;;;1.75;63.89;100581.28;4374777;32;34761;-87
2022/01/29 02:02:41;;;;;;;;;;;;;;;1.77;63.40;100584.78;4360523;32;34236;-89
2022/01/29 02:05:11;;;;;;;;;;;;;;;1.79;63.47;100575.44;4346022;32;34882;-86
2022/01/29 02:07:39;;;;;;;;;;;;;;;1.84;62.20;100579.94;4345728;32;33186;-87
2022/01/29 02:10:09;;;;;;;;;;;;;;;1.65;62.83;100575.81;4359681;32;32998;-86
2022/01/29 02:12:45;;;;;;;;;;;;;;;1.70;62.65;100584.53;4370536;32;33677;-89
2022/01/29 02:15:16;;;;;;;;;;;;;;;1.70;62.14;100584.53;4362618;32;34464;-87
2022/01/29 02:17:46;;;;;;;;;;;;;;;1.73;61.05;100593.16;4371974;32;33543;-87
2022/01/29 02:20:15;;;;;;;;;;;;;;;1.82;61.31;100589.22;4366785;32;33829;-87
2022/01/29 02:22:45;;;;;;;;;;;;;;;1.86;61.15;100583.44;4367116;32;34198;-87
2022/01/29 02:25:31;;;;;;;;;;;;;;;1.87;60.59;100587.72;4371781;32;33638;-88
2022/01/29 02:28:01;;;;;;;;;;;;;;;1.94;60.30;100588.81;4374222;32;33256;-87
2022/01/29 02:30:34;;;;;;;;;;;;;;;1.90;59.51;100590.38;4362244;32;33950;-87
2022/01/29 02:33:05;;;;;;;;;;;;;;;1.87;58.75;100584.28;4360926;32;34891;-86
2022/01/29 02:35:37;;;;;;;;;;;;;;;1.97;57.62;100580.38;4370208;32;32357;-87
2022/01/29 02:38:07;;;;;;;;;;;;;;;2.05;57.86;100589.19;4367983;32;33387;-90
2022/01/29 02:40:42;;;;;;;;;;;;;;;2.46;57.37;100588.06;4362030;32;33839;-89
2022/01/29 02:43:15;;;;;;;;;;;;;;;2.68;56.71;100578.53;4363947;32;34249;-87
2022/01/29 02:45:43;;;;;;;;;;;;;;;2.31;56.37;100582.41;4364094;32;34218;-89
2022/01/29 02:48:12;;;;;;;;;;;;;;;2.00;58.02;100589.00;4366148;32;32851;-88
2022/01/29 02:50:41;;;;;;;;;;;;;;;2.07;58.67;100583.28;4357152;32;34892;-90
2022/01/29 02:53:11;;;;;;;;;;;;;;;1.99;58.85;100587.28;4373221;32;33950;-88
2022/01/29 02:55:39;;;;;;;;;;;;;;;2.02;59.13;100609.56;4370287;32;36075;-87
2022/01/29 02:58:08;;;;;;;;;;;;;;;2.10;58.37;100592.78;4363942;32;32537;-88
2022/01/29 03:00:36;;;;;;;;;;;;;;;2.07;58.43;100603.78;4363498;32;33851;-88
2022/01/29 03:03:05;;;;;;;;;;;;;;;2.11;58.66;100609.87;4373228;32;34433;-87
2022/01/29 03:05:34;;;;;;;;;;;;;;;2.18;57.63;100609.28;4360211;32;34746;-89
2022/01/29 03:08:02;;;;;;;;;;;;;;;2.20;57.24;100609.31;4365725;32;31778;-86
2022/01/29 03:10:32;;;;;;;;;;;;;;;2.05;57.18;100610.53;4376725;32;34674;-88
2022/01/29 03:13:01;;;;;;;;;;;;;;;1.88;57.45;100597.13;4363460;32;35346;-88
2022/01/29 03:15:29;;;;;;;;;;;;;;;2.11;56.25;100604.78;4376281;32;33901;-87
2022/01/29 03:17:59;;;;;;;;;;;;;;;2.09;56.35;100616.63;4367170;32;33850;-88
2022/01/29 03:20:28;;;;;;;;;;;;;;;1.94;56.84;100613.53;4364610;32;34309;-86
2022/01/29 03:22:56;;;;;;;;;;;;;;;1.89;57.66;100615.91;4363639;32;35445;-88
2022/01/29 03:25:25;;;;;;;;;;;;;;;2.08;56.53;100620.88;4349998;32;35453;-87
2022/01/29 03:27:55;;;;;;;;;;;;;;;1.86;56.37;100618.34;4353182;32;33830;-90
2022/01/29 03:30:23;;;;;;;;;;;;;;;1.88;56.39;100617.59;4355089;32;33945;-87
2022/01/29 03:32:51;;;;;;;;;;;;;;;2.20;55.13;100624.69;4367692;32;35019;-87
2022/01/29 03:35:20;;;;;;;;;;;;;;;2.13;54.83;100639.84;4373047;32;34455;-86
2022/01/29 03:37:48;;;;;;;;;;;;;;;2.13;54.20;100636.41;4359567;32;33638;-90
2022/01/29 03:40:17;;;;;;;;;;;;;;;2.40;53.99;100646.75;4370688;32;34165;-88
2022/01/29 03:42:57;;;;;;;;;;;;;;;2.63;52.92;100631.31;4371245;32;34967;-88
2022/01/29 03:45:27;;;;;;;;;;;;;;;2.76;52.35;100625.78;4356076;32;32008;-87
2022/01/29 03:47:56;;;;;;;;;;;;;;;2.54;52.84;100627.63;4372985;32;33733;-88
2022/01/29 03:50:24;;;;;;;;;;;;;;;2.53;52.40;100625.84;4373229;32;34830;-87
2022/01/29 03:52:53;;;;;;;;;;;;;;;2.58;52.28;100627.72;4373840;32;33744;-89
2022/01/29 03:55:21;;;;;;;;;;;;;;;2.49;52.65;100624.03;4379135;32;33926;-87
2022/01/29 03:57:50;;;;;;;;;;;;;;;2.34;52.84;100619.25;4370740;32;31612;-88
2022/01/29 04:00:18;;;;;;;;;;;;;;;2.27;52.68;100624.09;4365386;32;32129;-87
2022/01/29 04:02:49;;;;;;;;;;;;;;;2.31;52.47;100620.81;4359973;32;34287;-88
2022/01/29 04:05:18;;;;;;;;;;;;;;;2.44;51.48;100620.44;4372135;32;34033;-89
2022/01/29 04:07:47;;;;;;;;;;;;;;;2.24;52.41;100632.53;4371090;32;33370;-87
2022/01/29 04:10:16;;;;;;;;;;;;;;;2.35;52.21;100638.91;4353917;32;34474;-89
2022/01/29 04:12:48;;;;;;;;;;;;;;;2.50;51.87;100638.56;4362134;32;35156;-89
2022/01/29 04:15:17;;;;;;;;;;;;;;;2.44;51.80;100638.38;4376253;32;33997;-90
2022/01/29 04:17:46;;;;;;;;;;;;;;;2.30;52.62;100629.34;4355449;32;33455;-89
2022/01/29 04:20:15;;;;;;;;;;;;;;;2.51;52.13;100627.53;4364253;32;34827;-88
2022/01/29 04:22:44;;;;;;;;;;;;;;;2.47;51.59;100622.25;4358919;32;35750;-86
2022/01/29 04:25:12;;;;;;;;;;;;;;;2.24;52.68;100623.97;4366836;32;34126;-87
2022/01/29 04:27:43;;;;;;;;;;;;;;;2.48;52.21;100634.22;4354707;32;33846;-88
2022/01/29 04:30:18;;;;;;;;;;;;;;;2.42;52.24;100619.53;4373300;32;33600;-87
2022/01/29 04:32:59;;;;;;;;;;;;;;;2.53;51.73;100618.19;4358117;32;33903;-89
2022/01/29 04:35:30;;;;;;;;;;;;;;;2.62;51.75;100614.22;4356758;32;33799;-90
2022/01/29 04:37:58;;;;;;;;;;;;;;;2.61;51.67;100617.56;4367075;32;32360;-88
2022/01/29 04:40:27;;;;;;;;;;;;;;;2.48;52.04;100616.28;4365032;32;33886;-90
2022/01/29 04:42:58;;;;;;;;;;;;;;;2.45;52.42;100616.19;4362020;32;31939;-88
2022/01/29 04:45:26;;;;;;;;;;;;;;;2.55;51.99;100611.41;4369821;32;34075;-87
2022/01/29 04:47:55;;;;;;;;;;;;;;;2.82;51.44;100608.03;4367159;32;33083;-89
2022/01/29 04:50:23;;;;;;;;;;;;;;;2.75;51.64;100619.81;4351186;32;34541;-88
2022/01/29 04:52:53;;;;;;;;;;;;;;;2.58;52.35;100608.09;4368042;32;33580;-87
2022/01/29 04:55:22;;;;;;;;;;;;;;;2.64;52.39;100602.31;4369846;32;35035;-88
2022/01/29 04:57:50;;;;;;;;;;;;;;;2.71;52.00;100601.72;4381811;32;34225;-90
2022/01/29 05:00:20;;;;;;;;;;;;;;;2.77;52.04;100607.88;4350474;32;34442;-89
2022/01/29 05:02:49;;;;;;;;;;;;;;;2.90;51.56;100608.28;4372298;32;34505;-89
2022/01/29 05:05:18;;;;;;;;;;;;;;;2.90;51.63;100609.19;4372637;32;34740;-87
2022/01/29 05:07:46;;;;;;;;;;;;;;;2.75;51.91;100612.12;4371298;32;33265;-87
2022/01/29 05:10:18;;;;;;;;;;;;;;;2.70;51.82;100613.63;4371732;32;34939;-88
2022/01/29 05:12:52;;;;;;;;;;;;;;;2.78;51.78;100617.31;4367258;32;35040;-87
2022/01/29 05:15:27;;;;;;;;;;;;;;;2.83;51.28;100622.59;4358331;32;32480;-90
2022/01/29 05:29:01;;;;;;;;;;;;;;;3.40;50.96;100648.34;4352297;32;34098;-89
2022/01/29 05:31:29;;;;;;;;;;;;;;;3.23;51.40;100640.97;4375382;32;33904;-87
2022/01/29 05:33:58;;;;;;;;;;;;;;;3.79;49.78;100642.72;4371263;32;34295;-89
2022/01/29 05:36:26;;;;;;;;;;;;;;;3.58;50.35;100642.94;4362638;32;34156;-87
2022/01/29 05:38:58;;;;;;;;;;;;;;;4.01;49.25;100648.44;4363702;32;33193;-89
2022/01/29 05:41:29;;;;;;;;;;;;;;;3.85;49.62;100642.88;4372043;32;33819;-87
2022/01/29 05:43:57;;;;;;;;;;;;;;;3.18;51.33;100653.63;4369789;32;33928;-86
2022/01/29 05:46:26;;;;;;;;;;;;;;;3.84;49.76;100653.97;4364689;32;35093;-88
2022/01/29 05:48:54;;;;;;;;;;;;;;;3.50;50.32;100649.50;4371881;32;33847;-87
2022/01/29 05:51:23;;;;;;;;;;;;;;;3.50;50.99;100643.50;4366165;32;33688;-87
2022/01/29 05:53:51;;;;;;;;;;;;;;;3.53;50.80;100651.31;4365708;32;34201;-89
2022/01/29 05:56:20;;;;;;;;;;;;;;;3.47;50.88;100657.13;4371483;32;33964;-88
2022/01/29 05:58:49;;;;;;;;;;;;;;;3.63;50.75;100658.47;4348670;32;33657;-88
2022/01/29 06:01:21;;;;;;;;;;;;;;;3.50;50.84;100666.59;4372589;32;35288;-87
2022/01/29 06:03:50;;;;;;;;;;;;;;;3.88;49.81;100667.75;4372702;32;36675;-87
2022/01/29 06:06:18;;;;;;;;;;;;;;;3.70;50.59;100669.81;4371612;32;34611;-88
2022/01/29 06:08:47;;;;;;;;;;;;;;;3.80;50.17;100666.69;4362856;32;33864;-90
2022/01/29 06:11:18;;;;;;;;;;;;;;;3.44;51.05;100676.69;4361274;32;34959;-87
2022/01/29 06:13:46;;;;;;;;;;;;;;;3.84;50.02;100679.66;4372235;32;34150;-89
2022/01/29 06:16:16;;;;;;;;;;;;;;;3.56;50.72;100680.50;4367456;32;34252;-89
2022/01/29 06:18:45;;;;;;;;;;;;;;;3.85;50.10;100681.37;4352649;32;32797;-90
2022/01/29 06:21:15;;;;;;;;;;;;;;;3.88;50.04;100688.28;4358118;32;34660;-90
2022/01/29 06:23:44;;;;;;;;;;;;;;;3.70;50.58;100690.31;4362107;32;33222;-88
2022/01/29 06:26:13;;;;;;;;;;;;;;;3.59;50.81;100683.16;4372642;32;34898;-92
2022/01/29 06:28:41;;;;;;;;;;;;;;;3.40;51.23;100681.69;4372143;32;33111;-88
2022/01/29 06:31:10;;;;;;;;;;;;;;;3.67;50.98;100680.81;4354122;32;34352;-88
2022/01/29 06:33:40;;;;;;;;;;;;;;;3.98;49.93;100680.03;4345424;32;34844;-90
2022/01/29 06:36:08;;;;;;;;;;;;;;;3.76;50.50;100680.22;4365973;32;34131;-88
2022/01/29 06:38:37;;;;;;;;;;;;;;;3.63;51.11;100681.56;4351068;32;31615;-88
2022/01/29 06:41:05;;;;;;;;;;;;;;;3.77;50.87;100682.84;4364596;32;34105;-88
2022/01/29 06:43:33;;;;;;;;;;;;;;;3.72;50.99;100686.09;4354895;32;34589;-91
2022/01/29 06:46:02;;;;;;;;;;;;;;;3.59;51.60;100679.72;4372540;32;34181;-90
2022/01/29 06:48:31;;;;;;;;;;;;;;;3.66;51.67;100683.34;4364438;32;33892;-88
2022/01/29 06:51:00;;;;;;;;;;;;;;;3.93;51.29;100673.03;4376275;32;34159;-87
2022/01/29 06:53:29;;;;;;;;;;;;;;;3.84;51.62;100678.75;4373194;32;34511;-89
2022/01/29 06:55:57;;;;;;;;;;;;;;;4.06;51.52;100673.44;4347766;32;33495;-89
2022/01/29 06:58:26;;;;;;;;;;;;;;;4.08;51.60;100670.91;4362263;32;33506;-89
2022/01/29 07:01:14;;;;;;;;;;;;;;;4.06;52.03;100681.16;4375175;32;34769;-87
2022/01/29 07:03:43;;;;;;;;;;;;;;;4.15;51.47;100690.78;4366864;32;34733;-88
2022/01/29 07:06:13;;;;;;;;;;;;;;;4.05;52.32;100688.78;4359226;32;35059;-89
2022/01/29 07:08:42;;;;;;;;;;;;;;;3.99;52.96;100699.75;4359420;32;33407;-90
2022/01/29 07:11:10;;;;;;;;;;;;;;;4.10;52.30;100699.22;4370399;32;35942;-92
2022/01/29 07:13:38;;;;;;;;;;;;;;;4.11;52.58;100694.13;4376349;32;34221;-89
2022/01/29 07:16:07;;;;;;;;;;;;;;;4.06;52.58;100698.25;4373695;32;34628;-89
2022/01/29 07:18:36;;;;;;;;;;;;;;;4.14;52.23;100694.22;4363664;32;34010;-89
2022/01/29 07:21:04;;;;;;;;;;;;;;;4.17;51.96;100690.84;4364342;32;33942;-91
2022/01/29 07:23:36;;;;;;;;;;;;;;;3.92;51.82;100702.13;4366138;32;34319;-87
2022/01/29 07:26:05;;;;;;;;;;;;;;;3.66;52.78;100702.19;4369957;32;33835;-87
2022/01/29 07:28:33;;;;;;;;;;;;;;;3.69;53.19;100706.53;4364163;32;34012;-86
2022/01/29 07:31:02;;;;;;;;;;;;;;;3.66;53.71;100707.31;4354787;32;32810;-86
2022/01/29 07:33:31;;;;;;;;;;;;;;;3.81;53.29;100705.19;4355863;32;35026;-88
2022/01/29 07:35:59;;;;;;;;;;;;;;;3.48;54.25;100697.34;4370334;32;34286;-90
2022/01/29 07:38:28;;;;;;;;;;;;;;;3.34;55.09;100714.84;4370041;32;33173;-89
2022/01/29 07:40:58;;;;;;;;;;;;;;;3.23;55.37;100718.75;4363276;32;34779;-87
2022/01/29 07:43:26;;;;;;;;;;;;;;;3.36;55.43;100709.78;4379375;32;34305;-89
2022/01/29 07:45:55;;;;;;;;;;;;;;;3.30;55.97;100704.44;4357693;32;32626;-89
2022/01/29 07:48:23;;;;;;;;;;;;;;;3.70;54.84;100714.28;4369282;32;33213;-88
2022/01/29 07:50:52;;;;;;;;;;;;;;;3.59;55.32;100707.94;4369158;32;34769;-88
2022/01/29 07:53:21;;;;;;;;;;;;;;;3.85;54.57;100708.75;4356919;32;34901;-88
2022/01/29 07:55:49;;;;;;;;;;;;;;;3.80;53.85;100710.31;4363798;32;34579;-89
2022/01/29 07:58:22;;;;;;;;;;;;;;;3.55;55.07;100708.66;4369748;32;31664;-88
2022/01/29 08:00:50;;;;;;;;;;;;;;;4.00;53.91;100711.75;4356303;32;32321;-89
2022/01/29 08:03:19;;;;;;;;;;;;;;;3.82;54.41;100719.78;4369264;32;33884;-88
2022/01/29 08:05:48;;;;;;;;;;;;;;;3.46;55.12;100716.09;4369359;32;32654;-87
2022/01/29 08:08:21;;;;;;;;;;;;;;;3.90;54.28;100708.91;4361792;32;34268;-88
2022/01/29 08:10:49;;;;;;;;;;;;;;;3.75;54.38;100719.56;4356643;32;34578;-90
2022/01/29 08:13:19;;;;;;;;;;;;;;;3.45;55.17;100714.31;4370060;32;34399;-91
2022/01/29 08:15:48;;;;;;;;;;;;;;;3.49;55.34;100717.03;4343105;32;781349;-88
2022/01/29 08:18:16;;;;;;;;;;;;;;;3.79;54.56;100721.37;4347998;32;34071;-87
2022/01/29 08:20:45;;;;;;;;;;;;;;;3.50;55.81;100726.47;4363641;32;34191;-89
2022/01/29 08:23:14;;;;;;;;;;;;;;;3.89;54.54;100712.25;4356734;32;34901;-87
2022/01/29 08:25:42;;;;;;;;;;;;;;;3.77;54.70;100711.09;4353399;32;33484;-88
2022/01/29 08:28:11;;;;;;;;;;;;;;;3.61;54.90;100719.13;4365489;32;33610;-88
2022/01/29 08:30:41;;;;;;;;;;;;;;;3.78;54.32;100720.50;4363836;32;34217;-87
2022/01/29 08:33:11;;;;;;;;;;;;;;;3.64;54.87;100719.22;4365543;32;34245;-88
2022/01/29 08:35:40;;;;;;;;;;;;;;;3.93;53.44;100716.69;4365414;32;33746;-89
2022/01/29 08:38:08;;;;;;;;;;;;;;;3.85;53.54;100719.88;4359467;32;31562;-88
2022/01/29 08:40:39;;;;;;;;;;;;;;;3.76;54.12;100727.28;4347406;32;33964;-88
2022/01/29 08:43:09;;;;;;;;;;;;;;;3.85;53.17;100719.88;4359686;32;35326;-90
2022/01/29 08:45:37;;;;;;;;;;;;;;;4.01;53.04;100722.91;4361720;32;34520;-88
2022/01/29 08:48:07;;;;;;;;;;;;;;;4.15;51.96;100726.75;4333568;32;32796;-89
2022/01/29 08:50:35;;;;;;;;;;;;;;;4.32;51.06;100732.37;4365419;32;33284;-88
2022/01/29 08:53:04;;;;;;;;;;;;;;;3.88;51.98;100731.06;4367613;32;34255;-86
2022/01/29 08:55:36;;;;;;;;;;;;;;;4.20;50.96;100734.59;4362666;32;34674;-87
2022/01/29 08:58:05;;;;;;;;;;;;;;;4.24;51.40;100732.16;4348798;32;33340;-88
2022/01/29 09:00:40;;;;;;;;;;;;;;;4.49;50.07;100735.44;4363470;32;33582;-88
2022/01/29 09:03:13;;;;;;;;;;;;;;;4.76;49.16;100734.44;4363312;32;32232;-87
2022/01/29 09:05:42;;;;;;;;;;;;;;;4.54;49.22;100741.56;4364754;32;34950;-89
2022/01/29 09:08:11;;;;;;;;;;;;;;;4.49;49.97;100745.72;4363863;32;32098;-89
2022/01/29 09:10:39;;;;;;;;;;;;;;;4.86;48.50;100742.47;4344525;32;33865;-89
2022/01/29 09:13:08;;;;;;;;;;;;;;;4.94;47.28;100742.66;4351321;32;34058;-88
2022/01/29 09:15:36;;;;;;;;;;;;;;;4.84;46.85;100735.53;4364125;32;33715;-88
2022/01/29 09:18:14;;;;;;;;;;;;;;;4.81;46.89;100735.44;4368274;32;33491;-88
2022/01/29 09:20:44;;;;;;;;;;;;;;;4.93;46.39;100740.94;4333182;32;34979;-88
2022/01/29 09:23:12;;;;;;;;;;;;;;;5.04;45.35;100741.22;4362523;32;34987;-88
2022/01/29 09:25:41;;;;;;;;;;;;;;;5.14;44.83;100735.47;4361451;32;33602;-88
2022/01/29 09:28:10;;;;;;;;;;;;;;;5.08;45.11;100733.62;4365562;32;32950;-88
2022/01/29 09:30:38;;;;;;;;;;;;;;;5.19;43.48;100722.72;4373980;32;34043;-87
2022/01/29 09:33:07;;;;;;;;;;;;;;;4.86;43.97;100727.03;4371177;32;34419;-87
2022/01/29 09:35:38;;;;;;;;;;;;;;;4.74;43.99;100729.28;4362570;32;34023;-87
2022/01/29 09:38:08;;;;;;;;;;;;;;;4.58;45.06;100732.25;4367640;32;33192;-87
2022/01/29 09:40:37;;;;;;;;;;;;;;;4.80;44.83;100728.56;4366821;32;36174;-87
2022/01/29 09:43:06;;;;;;;;;;;;;;;4.98;44.97;100720.47;4356804;32;32885;-87
2022/01/29 09:45:35;;;;;;;;;;;;;;;5.08;45.02;100718.19;4366189;32;33286;-86
2022/01/29 09:48:04;;;;;;;;;;;;;;;4.96;45.46;100722.16;4359697;32;33044;-88
2022/01/29 09:50:33;;;;;;;;;;;;;;;4.95;45.63;100718.69;4325504;32;34878;-86
2022/01/29 09:53:08;;;;;;;;;;;;;;;4.98;45.82;100705.03;4360618;32;33556;-88
2022/01/29 09:55:36;;;;;;;;;;;;;;;5.02;46.44;100704.28;4357541;32;32757;-89
2022/01/29 09:58:04;;;;;;;;;;;;;;;5.25;46.69;100692.88;4368935;32;34309;-87
2022/01/29 10:03:59;;;;;;;;;;;;;;;5.44;46.84;100683.91;4364360;32;34319;-87
2022/01/29 10:06:28;;;;;;;;;;;;;;;5.77;46.29;100676.09;4360215;32;32136;-88
2022/01/29 10:08:59;;;;;;;;;;;;;;;5.77;46.52;100677.75;4360144;32;33997;-87
2022/01/29 10:11:30;;;;;;;;;;;;;;;5.80;46.91;100675.28;4362614;32;33959;-87
2022/01/29 10:13:59;;;;;;;;;;;;;;;5.87;46.56;100676.25;4367074;32;33815;-88
2022/01/29 10:16:28;;;;;;;;;;;;;;;5.76;46.88;100668.31;4366433;32;34305;-88
2022/01/29 10:19:00;;;;;;;;;;;;;;;5.78;47.16;100661.50;4363322;32;33949;-88
2022/01/29 10:21:30;;;;;;;;;;;;;;;5.87;47.07;100664.28;4358067;32;33647;-88
2022/01/29 10:24:05;;;;;;;;;;;;;;;5.65;47.67;100665.47;4361541;32;35062;-87
2022/01/29 10:26:35;;;;;;;;;;;;;;;5.45;48.56;100654.75;4370059;32;33162;-88
2022/01/29 10:29:05;;;;;;;;;;;;;;;5.48;48.39;100653.94;4371499;32;33595;-89
2022/01/29 10:31:41;;;;;;;;;;;;;;;5.72;47.96;100661.34;4362783;32;33879;-89
2022/01/29 10:34:16;;;;;;;;;;;;;;;5.50;48.68;100655.72;4362579;32;34598;-88
2022/01/29 10:36:45;;;;;;;;;;;;;;;5.69;48.79;100662.16;4362085;32;34216;-88
2022/01/29 10:39:15;;;;;;;;;;;;;;;5.72;48.33;100658.78;4365389;32;33293;-88
2022/01/29 10:41:44;;;;;;;;;;;;;;;5.63;48.70;100643.13;4372257;32;34069;-88
2022/01/29 10:44:16;;;;;;;;;;;;;;;5.67;49.02;100644.94;4375655;32;34466;-88
2022/01/29 10:46:46;;;;;;;;;;;;;;;5.99;48.50;100643.06;4366368;32;35858;-89
2022/01/29 10:49:22;;;;;;;;;;;;;;;6.12;48.29;100647.66;4365361;32;33911;-88
2022/01/29 10:51:57;;;;;;;;;;;;;;;6.14;48.05;100642.53;4362253;32;33536;-88
2022/01/29 10:54:27;;;;;;;;;;;;;;;6.09;48.07;100639.88;4331627;32;34320;-88
2022/01/29 10:56:57;;;;;;;;;;;;;;;5.94;48.57;100639.53;4365424;32;33866;-89
2022/01/29 10:59:27;;;;;;;;;;;;;;;6.05;48.32;100635.47;4359370;32;32793;-87
2022/01/29 11:01:56;;;;;;;;;;;;;;;5.98;49.00;100631.91;4364186;32;34530;-88
2022/01/29 11:04:28;;;;;;;;;;;;;;;5.46;50.46;100624.72;4364998;32;33659;-87
2022/01/29 11:06:59;;;;;;;;;;;;;;;5.45;50.87;100617.84;4361395;32;33879;-89
2022/01/29 11:09:29;;;;;;;;;;;;;;;5.37;50.94;100625.41;4358418;32;32959;-88
2022/01/29 11:11:58;;;;;;;;;;;;;;;5.30;51.52;100628.69;4370365;32;34014;-88
2022/01/29 11:14:27;;;;;;;;;;;;;;;5.47;51.17;100627.34;4369693;32;33753;-88
2022/01/29 11:16:58;;;;;;;;;;;;;;;5.52;51.20;100622.31;4373083;32;34338;-88
2022/01/29 11:19:26;;;;;;;;;;;;;;;5.65;51.11;100624.28;4365530;32;33417;-90
2022/01/29 11:21:55;;;;;;;;;;;;;;;5.65;51.15;100610.56;4372972;32;34656;-89
2022/01/29 11:24:24;;;;;;;;;;;;;;;6.01;50.53;100610.50;4368475;32;34068;-88
2022/01/29 11:26:55;;;;;;;;;;;;;;;5.98;50.56;100605.28;4365806;32;35208;-88
2022/01/29 11:29:33;;;;;;;;;;;;;;;5.98;50.92;100597.56;4366521;32;32889;-88
2022/01/29 11:32:20;;;;;;;;;;;;;;;6.36;50.15;100592.28;4375936;32;34529;-89
2022/01/29 11:34:59;;;;;;;;;;;;;;;6.64;49.47;100591.03;4346656;32;33999;-89
2022/01/29 11:37:36;;;;;;;;;;;;;;;6.24;50.81;100581.75;4378895;32;34438;-89
2022/01/29 11:40:11;;;;;;;;;;;;;;;6.68;49.75;100579.09;4361186;32;33579;-88
2022/01/29 11:42:41;;;;;;;;;;;;;;;6.87;48.88;100575.97;4368099;32;34372;-88
2022/01/29 11:45:28;;;;;;;;;;;;;;;6.65;49.35;100574.75;4376247;32;34635;-89
2022/01/29 11:47:56;;;;;;;;;;;;;;;6.71;49.24;100567.09;4359910;32;33865;-89
2022/01/29 11:50:40;;;;;;;;;;;;;;;6.75;49.01;100562.87;4372036;32;33380;-87
2022/01/29 11:53:08;;;;;;;;;;;;;;;6.60;49.42;100566.94;4370307;32;33727;-87
2022/01/29 11:55:39;;;;;;;;;;;;;;;6.57;49.70;100550.53;4372704;32;33737;-88
2022/01/29 11:58:22;;;;;;;;;;;;;;;6.57;49.79;100545.37;4361255;32;34182;-87
2022/01/29 12:00:52;;;;;;;;;;;;;;;6.73;49.49;100544.78;4369274;32;33031;-88
2022/01/29 12:03:40;;;;;;;;;;;;;;;6.74;49.21;100538.81;4370777;32;34085;-87
2022/01/29 12:06:17;;;;;;;;;;;;;;;6.92;48.95;100545.09;4375133;32;34221;-88
2022/01/29 12:09:19;;;;;;;;;;;;;;;6.94;48.77;100541.69;4370742;32;33457;-88
2022/01/29 12:12:02;;;;;;;;;;;;;;;6.72;49.51;100537.91;4319507;33;33037;-87
2022/01/29 12:14:32;;;;;;;;;;;;;;;6.86;49.28;100527.78;4318332;33;34044;-88
2022/01/29 12:17:02;;;;;;;;;;;;;;;7.28;48.14;100525.84;4323903;33;33731;-89
2022/01/29 12:19:38;;;;;;;;;;;;;;;7.46;47.73;100515.72;4320406;33;34532;-88
2022/01/29 12:22:10;;;;;;;;;;;;;;;7.50;47.62;100517.50;4321103;33;33792;-88
2022/01/29 12:24:39;;;;;;;;;;;;;;;7.56;47.18;100509.81;4309381;33;34028;-88
2022/01/29 12:27:08;;;;;;;;;;;;;;;7.41;47.44;100510.50;4320961;33;35921;-87
2022/01/29 12:29:37;;;;;;;;;;;;;;;7.35;47.92;100509.59;4316309;33;33971;-87
2022/01/29 12:32:06;;;;;;;;;;;;;;;7.52;47.75;100505.50;4312095;33;33739;-88
2022/01/29 12:34:38;;;;;;;;;;;;;;;7.43;47.85;100495.91;4312273;33;34800;-87
2022/01/29 12:37:09;;;;;;;;;;;;;;;7.44;47.51;100489.91;4314195;33;35115;-87
2022/01/29 12:39:37;;;;;;;;;;;;;;;7.23;47.80;100487.91;4321431;33;34837;-87
2022/01/29 12:42:12;;;;;;;;;;;;;;;7.34;47.59;100484.59;4309091;32;31422;-88
2022/01/29 12:44:43;;;;;;;;;;;;;;;7.20;48.23;100477.56;4348584;32;34141;-87
2022/01/29 12:47:23;;;;;;;;;;;;;;;7.31;47.51;100475.09;4374720;32;35591;-88
2022/01/29 12:49:52;;;;;;;;;;;;;;;7.12;47.85;100471.41;4371420;32;33858;-88
2022/01/29 12:52:20;;;;;;;;;;;;;;;7.00;48.45;100468.66;4371496;32;33190;-89
2022/01/29 12:54:53;;;;;;;;;;;;;;;7.00;48.07;100464.37;4364650;32;34153;-88
2022/01/29 12:57:21;;;;;;;;;;;;;;;7.21;47.78;100456.06;4356675;32;34647;-87
2022/01/29 12:59:53;;;;;;;;;;;;;;;7.02;48.28;100446.34;4349768;32;33795;-88
2022/01/29 13:02:39;;;;;;;;;;;;;;;7.10;48.04;100446.44;4309345;32;32180;-87
2022/01/29 13:05:08;;;;;;;;;;;;;;;6.87;48.29;100443.56;4351144;32;34151;-88
2022/01/29 13:07:37;;;;;;;;;;;;;;;7.09;48.00;100444.72;4365213;32;34289;-88
2022/01/29 13:10:06;;;;;;;;;;;;;;;7.17;47.97;100453.41;4362158;32;34693;-87
2022/01/29 13:12:38;;;;;;;;;;;;;;;7.16;48.10;100449.97;4367170;32;32737;-87
2022/01/29 13:15:10;;;;;;;;;;;;;;;7.15;48.22;100448.25;4372693;32;34013;-89
2022/01/29 13:17:42;;;;;;;;;;;;;;;7.07;48.36;100438.66;4362143;32;34310;-87